sensor_id;sensor_type;location;lat;lon;timestamp;P1;durP1;ratioP1;P2;durP2;ratioP2
25511;SDS011;13414;44.534;18.700;2022-09-09T00:00:56;19.98;;;11.82;;
25511;SDS011;13414;44.534;18.700;2022-09-09T00:03:33;22.00;;;11.45;;
25511;SDS011;13414;44.534;18.700;2022-09-09T00:06:08;20.05;;;11.35;;
25511;SDS011;13414;44.534;18.700;2022-09-09T00:08:45;22.83;;;11.60;;
25511;SDS011;13414;44.534;18.700;2022-09-09T00:11:21;18.35;;;11.65;;
25511;SDS011;13414;44.534;18.700;2022-09-09T00:13:54;20.90;;;11.30;;
25511;SDS011;13414;44.534;18.700;2022-09-09T00:16:29;20.35;;;12.25;;
25511;SDS011;13414;44.534;18.700;2022-09-09T00:19:04;19.33;;;12.13;;
25511;SDS011;13414;44.534;18.700;2022-09-09T00:21:36;20.67;;;11.45;;
25511;SDS011;13414;44.534;18.700;2022-09-09T00:24:08;21.60;;;11.75;;
25511;SDS011;13414;44.534;18.700;2022-09-09T00:26:42;17.30;;;11.48;;
25511;SDS011;13414;44.534;18.700;2022-09-09T00:29:14;21.73;;;11.73;;
25511;SDS011;13414;44.534;18.700;2022-09-09T00:31:50;19.63;;;11.25;;
25511;SDS011;13414;44.534;18.700;2022-09-09T00:34:22;18.42;;;10.90;;
25511;SDS011;13414;44.534;18.700;2022-09-09T00:36:52;19.45;;;11.38;;
25511;SDS011;13414;44.534;18.700;2022-09-09T00:39:24;23.50;;;12.40;;
25511;SDS011;13414;44.534;18.700;2022-09-09T00:41:59;23.65;;;12.68;;
25511;SDS011;13414;44.534;18.700;2022-09-09T00:44:39;20.95;;;12.65;;
25511;SDS011;13414;44.534;18.700;2022-09-09T00:47:24;19.52;;;12.73;;
25511;SDS011;13414;44.534;18.700;2022-09-09T00:50:10;19.58;;;11.63;;
25511;SDS011;13414;44.534;18.700;2022-09-09T00:52:58;26.92;;;13.30;;
25511;SDS011;13414;44.534;18.700;2022-09-09T00:55:34;28.65;;;11.98;;
25511;SDS011;13414;44.534;18.700;2022-09-09T01:00:35;18.55;;;12.38;;
25511;SDS011;13414;44.534;18.700;2022-09-09T01:03:19;23.27;;;13.15;;
25511;SDS011;13414;44.534;18.700;2022-09-09T01:05:54;26.25;;;13.85;;
25511;SDS011;13414;44.534;18.700;2022-09-09T01:11:41;28.00;;;13.70;;
25511;SDS011;13414;44.534;18.700;2022-09-09T01:14:20;17.73;;;12.90;;
25511;SDS011;13414;44.534;18.700;2022-09-09T01:16:58;19.90;;;13.13;;
25511;SDS011;13414;44.534;18.700;2022-09-09T01:19:35;18.75;;;13.10;;
25511;SDS011;13414;44.534;18.700;2022-09-09T01:22:10;23.13;;;13.07;;
25511;SDS011;13414;44.534;18.700;2022-09-09T01:24:48;26.88;;;12.75;;
25511;SDS011;13414;44.534;18.700;2022-09-09T01:27:59;17.33;;;12.57;;
25511;SDS011;13414;44.534;18.700;2022-09-09T01:30:31;19.55;;;12.48;;
25511;SDS011;13414;44.534;18.700;2022-09-09T01:33:02;19.35;;;12.15;;
25511;SDS011;13414;44.534;18.700;2022-09-09T01:35:36;23.35;;;11.70;;
25511;SDS011;13414;44.534;18.700;2022-09-09T01:38:08;20.48;;;13.25;;
25511;SDS011;13414;44.534;18.700;2022-09-09T01:40:35;17.00;;;12.32;;
25511;SDS011;13414;44.534;18.700;2022-09-09T01:43:04;31.95;;;19.98;;
25511;SDS011;13414;44.534;18.700;2022-09-09T01:45:33;23.88;;;13.93;;
25511;SDS011;13414;44.534;18.700;2022-09-09T01:48:02;23.27;;;12.70;;
25511;SDS011;13414;44.534;18.700;2022-09-09T01:50:41;26.67;;;14.52;;
25511;SDS011;13414;44.534;18.700;2022-09-09T01:53:08;19.80;;;13.45;;
25511;SDS011;13414;44.534;18.700;2022-09-09T01:55:37;26.05;;;14.73;;
25511;SDS011;13414;44.534;18.700;2022-09-09T01:58:14;21.13;;;13.10;;
25511;SDS011;13414;44.534;18.700;2022-09-09T02:00:56;18.98;;;13.95;;
25511;SDS011;13414;44.534;18.700;2022-09-09T02:03:32;25.33;;;14.98;;
25511;SDS011;13414;44.534;18.700;2022-09-09T02:06:14;26.27;;;14.52;;
25511;SDS011;13414;44.534;18.700;2022-09-09T02:08:50;31.50;;;17.48;;
25511;SDS011;13414;44.534;18.700;2022-09-09T02:11:20;26.05;;;16.90;;
25511;SDS011;13414;44.534;18.700;2022-09-09T02:14:16;27.95;;;18.25;;
25511;SDS011;13414;44.534;18.700;2022-09-09T02:16:49;28.45;;;17.90;;
25511;SDS011;13414;44.534;18.700;2022-09-09T02:19:25;33.72;;;18.67;;
25511;SDS011;13414;44.534;18.700;2022-09-09T02:22:06;30.60;;;20.17;;
25511;SDS011;13414;44.534;18.700;2022-09-09T02:24:35;29.25;;;18.58;;
25511;SDS011;13414;44.534;18.700;2022-09-09T02:27:12;25.25;;;18.98;;
25511;SDS011;13414;44.534;18.700;2022-09-09T02:29:43;31.33;;;18.70;;
25511;SDS011;13414;44.534;18.700;2022-09-09T02:32:13;29.75;;;17.98;;
25511;SDS011;13414;44.534;18.700;2022-09-09T02:34:44;24.92;;;17.30;;
25511;SDS011;13414;44.534;18.700;2022-09-09T02:37:15;29.48;;;16.90;;
25511;SDS011;13414;44.534;18.700;2022-09-09T02:42:20;34.15;;;19.27;;
25511;SDS011;13414;44.534;18.700;2022-09-09T02:44:50;28.33;;;19.33;;
25511;SDS011;13414;44.534;18.700;2022-09-09T02:47:24;30.92;;;18.52;;
25511;SDS011;13414;44.534;18.700;2022-09-09T02:50:03;27.60;;;19.05;;
25511;SDS011;13414;44.534;18.700;2022-09-09T02:52:38;27.33;;;18.85;;
25511;SDS011;13414;44.534;18.700;2022-09-09T02:55:16;29.50;;;19.90;;
25511;SDS011;13414;44.534;18.700;2022-09-09T02:57:50;31.65;;;20.23;;
25511;SDS011;13414;44.534;18.700;2022-09-09T03:00:25;34.13;;;20.38;;
25511;SDS011;13414;44.534;18.700;2022-09-09T03:02:58;35.22;;;22.00;;
25511;SDS011;13414;44.534;18.700;2022-09-09T03:05:27;32.55;;;22.73;;
25511;SDS011;13414;44.534;18.700;2022-09-09T03:07:54;33.20;;;21.60;;
25511;SDS011;13414;44.534;18.700;2022-09-09T03:10:22;28.55;;;20.65;;
25511;SDS011;13414;44.534;18.700;2022-09-09T03:12:49;31.33;;;21.17;;
25511;SDS011;13414;44.534;18.700;2022-09-09T03:15:17;31.67;;;22.00;;
25511;SDS011;13414;44.534;18.700;2022-09-09T03:17:47;33.08;;;21.67;;
25511;SDS011;13414;44.534;18.700;2022-09-09T03:20:15;33.20;;;22.58;;
25511;SDS011;13414;44.534;18.700;2022-09-09T03:22:42;31.33;;;23.13;;
25511;SDS011;13414;44.534;18.700;2022-09-09T03:25:10;27.17;;;20.73;;
25511;SDS011;13414;44.534;18.700;2022-09-09T03:27:38;27.50;;;20.75;;
25511;SDS011;13414;44.534;18.700;2022-09-09T03:30:06;30.58;;;20.13;;
25511;SDS011;13414;44.534;18.700;2022-09-09T03:32:34;30.15;;;21.10;;
25511;SDS011;13414;44.534;18.700;2022-09-09T03:35:03;32.40;;;21.35;;
25511;SDS011;13414;44.534;18.700;2022-09-09T03:37:31;35.33;;;22.02;;
25511;SDS011;13414;44.534;18.700;2022-09-09T03:39:59;28.02;;;20.13;;
25511;SDS011;13414;44.534;18.700;2022-09-09T03:42:27;30.05;;;20.88;;
25511;SDS011;13414;44.534;18.700;2022-09-09T03:44:56;27.77;;;18.25;;
25511;SDS011;13414;44.534;18.700;2022-09-09T03:47:25;27.23;;;19.75;;
25511;SDS011;13414;44.534;18.700;2022-09-09T03:49:59;25.45;;;18.70;;
25511;SDS011;13414;44.534;18.700;2022-09-09T03:52:30;33.17;;;21.10;;
25511;SDS011;13414;44.534;18.700;2022-09-09T03:54:57;26.25;;;19.23;;
25511;SDS011;13414;44.534;18.700;2022-09-09T03:57:25;27.90;;;19.23;;
25511;SDS011;13414;44.534;18.700;2022-09-09T03:59:52;28.10;;;19.08;;
25511;SDS011;13414;44.534;18.700;2022-09-09T04:02:20;25.33;;;17.60;;
25511;SDS011;13414;44.534;18.700;2022-09-09T04:04:48;24.67;;;17.05;;
25511;SDS011;13414;44.534;18.700;2022-09-09T04:07:16;24.13;;;17.23;;
25511;SDS011;13414;44.534;18.700;2022-09-09T04:09:45;28.25;;;18.10;;
25511;SDS011;13414;44.534;18.700;2022-09-09T04:12:13;26.85;;;17.70;;
25511;SDS011;13414;44.534;18.700;2022-09-09T04:14:42;25.45;;;17.48;;
25511;SDS011;13414;44.534;18.700;2022-09-09T04:17:09;24.98;;;18.38;;
25511;SDS011;13414;44.534;18.700;2022-09-09T04:19:37;25.33;;;18.38;;
25511;SDS011;13414;44.534;18.700;2022-09-09T04:22:04;23.55;;;18.02;;
25511;SDS011;13414;44.534;18.700;2022-09-09T04:24:31;32.88;;;19.05;;
25511;SDS011;13414;44.534;18.700;2022-09-09T04:27:02;29.98;;;17.33;;
25511;SDS011;13414;44.534;18.700;2022-09-09T04:29:31;21.33;;;16.58;;
25511;SDS011;13414;44.534;18.700;2022-09-09T04:31:59;31.35;;;18.92;;
25511;SDS011;13414;44.534;18.700;2022-09-09T04:34:26;24.08;;;17.67;;
25511;SDS011;13414;44.534;18.700;2022-09-09T04:36:55;25.98;;;17.88;;
25511;SDS011;13414;44.534;18.700;2022-09-09T04:39:22;27.20;;;16.33;;
25511;SDS011;13414;44.534;18.700;2022-09-09T04:41:50;30.20;;;18.00;;
25511;SDS011;13414;44.534;18.700;2022-09-09T04:44:22;32.97;;;17.67;;
25511;SDS011;13414;44.534;18.700;2022-09-09T04:46:49;25.88;;;18.15;;
25511;SDS011;13414;44.534;18.700;2022-09-09T04:49:16;23.65;;;16.88;;
25511;SDS011;13414;44.534;18.700;2022-09-09T04:51:44;23.52;;;15.77;;
25511;SDS011;13414;44.534;18.700;2022-09-09T04:54:12;27.40;;;17.02;;
25511;SDS011;13414;44.534;18.700;2022-09-09T04:56:42;26.10;;;17.00;;
25511;SDS011;13414;44.534;18.700;2022-09-09T04:59:10;28.08;;;17.70;;
25511;SDS011;13414;44.534;18.700;2022-09-09T05:01:48;26.40;;;17.98;;
25511;SDS011;13414;44.534;18.700;2022-09-09T05:04:16;21.55;;;17.98;;
25511;SDS011;13414;44.534;18.700;2022-09-09T05:06:44;22.40;;;17.40;;
25511;SDS011;13414;44.534;18.700;2022-09-09T05:09:12;31.83;;;18.67;;
25511;SDS011;13414;44.534;18.700;2022-09-09T05:11:40;26.13;;;17.67;;
25511;SDS011;13414;44.534;18.700;2022-09-09T05:14:27;25.35;;;18.45;;
25511;SDS011;13414;44.534;18.700;2022-09-09T05:16:56;20.55;;;16.25;;
25511;SDS011;13414;44.534;18.700;2022-09-09T05:19:24;30.92;;;20.25;;
25511;SDS011;13414;44.534;18.700;2022-09-09T05:21:53;35.60;;;24.02;;
25511;SDS011;13414;44.534;18.700;2022-09-09T05:24:26;22.83;;;19.00;;
25511;SDS011;13414;44.534;18.700;2022-09-09T05:26:56;27.40;;;19.40;;
25511;SDS011;13414;44.534;18.700;2022-09-09T05:29:25;21.50;;;18.58;;
25511;SDS011;13414;44.534;18.700;2022-09-09T05:31:54;31.63;;;18.10;;
25511;SDS011;13414;44.534;18.700;2022-09-09T05:34:23;28.55;;;19.23;;
25511;SDS011;13414;44.534;18.700;2022-09-09T05:36:50;25.90;;;19.13;;
25511;SDS011;13414;44.534;18.700;2022-09-09T05:39:19;35.25;;;19.80;;
25511;SDS011;13414;44.534;18.700;2022-09-09T05:41:47;25.33;;;17.42;;
25511;SDS011;13414;44.534;18.700;2022-09-09T05:44:15;32.50;;;18.88;;
25511;SDS011;13414;44.534;18.700;2022-09-09T05:46:44;22.92;;;17.85;;
25511;SDS011;13414;44.534;18.700;2022-09-09T05:49:12;33.03;;;18.50;;
25511;SDS011;13414;44.534;18.700;2022-09-09T05:51:42;30.88;;;18.90;;
25511;SDS011;13414;44.534;18.700;2022-09-09T05:54:12;21.40;;;16.42;;
25511;SDS011;13414;44.534;18.700;2022-09-09T05:56:44;25.13;;;18.08;;
25511;SDS011;13414;44.534;18.700;2022-09-09T05:59:11;25.88;;;19.08;;
25511;SDS011;13414;44.534;18.700;2022-09-09T06:01:40;22.23;;;15.90;;
25511;SDS011;13414;44.534;18.700;2022-09-09T06:04:17;25.85;;;15.77;;
25511;SDS011;13414;44.534;18.700;2022-09-09T06:06:49;18.75;;;15.32;;
25511;SDS011;13414;44.534;18.700;2022-09-09T06:09:19;22.00;;;16.25;;
25511;SDS011;13414;44.534;18.700;2022-09-09T06:11:47;22.65;;;15.13;;
25511;SDS011;13414;44.534;18.700;2022-09-09T06:14:14;27.45;;;19.63;;
25511;SDS011;13414;44.534;18.700;2022-09-09T06:16:45;23.00;;;15.40;;
25511;SDS011;13414;44.534;18.700;2022-09-09T06:19:17;31.67;;;15.43;;
25511;SDS011;13414;44.534;18.700;2022-09-09T06:21:46;36.88;;;17.17;;
25511;SDS011;13414;44.534;18.700;2022-09-09T06:24:16;24.25;;;15.50;;
25511;SDS011;13414;44.534;18.700;2022-09-09T06:26:45;22.27;;;15.30;;
25511;SDS011;13414;44.534;18.700;2022-09-09T06:29:18;25.02;;;15.93;;
25511;SDS011;13414;44.534;18.700;2022-09-09T06:31:45;21.98;;;15.15;;
25511;SDS011;13414;44.534;18.700;2022-09-09T06:34:19;21.73;;;16.83;;
25511;SDS011;13414;44.534;18.700;2022-09-09T06:36:51;25.85;;;18.02;;
25511;SDS011;13414;44.534;18.700;2022-09-09T06:39:20;27.33;;;17.65;;
25511;SDS011;13414;44.534;18.700;2022-09-09T06:41:47;22.27;;;15.70;;
25511;SDS011;13414;44.534;18.700;2022-09-09T06:44:37;27.40;;;16.63;;
25511;SDS011;13414;44.534;18.700;2022-09-09T06:47:08;25.55;;;18.77;;
25511;SDS011;13414;44.534;18.700;2022-09-09T06:49:37;31.73;;;17.73;;
25511;SDS011;13414;44.534;18.700;2022-09-09T06:52:07;36.50;;;19.75;;
25511;SDS011;13414;44.534;18.700;2022-09-09T06:54:37;26.35;;;17.88;;
25511;SDS011;13414;44.534;18.700;2022-09-09T06:57:05;25.20;;;18.50;;
25511;SDS011;13414;44.534;18.700;2022-09-09T06:59:34;21.50;;;15.90;;
25511;SDS011;13414;44.534;18.700;2022-09-09T07:02:02;20.02;;;12.93;;
25511;SDS011;13414;44.534;18.700;2022-09-09T07:04:30;29.70;;;14.00;;
25511;SDS011;13414;44.534;18.700;2022-09-09T07:06:57;22.63;;;13.60;;
25511;SDS011;13414;44.534;18.700;2022-09-09T07:09:26;238.82;;;41.80;;
25511;SDS011;13414;44.534;18.700;2022-09-09T07:11:56;19.83;;;12.25;;
25511;SDS011;13414;44.534;18.700;2022-09-09T07:14:27;19.80;;;13.20;;
25511;SDS011;13414;44.534;18.700;2022-09-09T07:16:58;22.55;;;13.45;;
25511;SDS011;13414;44.534;18.700;2022-09-09T07:19:30;23.73;;;16.00;;
25511;SDS011;13414;44.534;18.700;2022-09-09T07:21:57;28.23;;;14.60;;
25511;SDS011;13414;44.534;18.700;2022-09-09T07:24:24;23.58;;;13.93;;
25511;SDS011;13414;44.534;18.700;2022-09-09T07:26:56;16.80;;;12.05;;
25511;SDS011;13414;44.534;18.700;2022-09-09T07:29:25;19.25;;;12.18;;
25511;SDS011;13414;44.534;18.700;2022-09-09T07:31:53;21.83;;;13.05;;
25511;SDS011;13414;44.534;18.700;2022-09-09T07:34:25;22.25;;;11.98;;
25511;SDS011;13414;44.534;18.700;2022-09-09T07:36:52;17.00;;;11.30;;
25511;SDS011;13414;44.534;18.700;2022-09-09T07:39:20;17.00;;;10.55;;
25511;SDS011;13414;44.534;18.700;2022-09-09T07:41:51;16.45;;;12.00;;
25511;SDS011;13414;44.534;18.700;2022-09-09T07:44:23;20.90;;;12.30;;
25511;SDS011;13414;44.534;18.700;2022-09-09T07:47:12;21.02;;;11.35;;
25511;SDS011;13414;44.534;18.700;2022-09-09T07:49:45;25.05;;;15.02;;
25511;SDS011;13414;44.534;18.700;2022-09-09T07:52:19;20.83;;;11.65;;
25511;SDS011;13414;44.534;18.700;2022-09-09T07:54:50;12.23;;;10.25;;
25511;SDS011;13414;44.534;18.700;2022-09-09T07:57:17;17.73;;;11.45;;
25511;SDS011;13414;44.534;18.700;2022-09-09T07:59:47;16.73;;;12.05;;
25511;SDS011;13414;44.534;18.700;2022-09-09T08:02:16;17.58;;;10.82;;
25511;SDS011;13414;44.534;18.700;2022-09-09T08:04:45;13.55;;;10.15;;
25511;SDS011;13414;44.534;18.700;2022-09-09T08:07:19;18.70;;;11.38;;
25511;SDS011;13414;44.534;18.700;2022-09-09T08:09:53;16.75;;;11.50;;
25511;SDS011;13414;44.534;18.700;2022-09-09T08:12:25;19.52;;;10.18;;
25511;SDS011;13414;44.534;18.700;2022-09-09T08:14:54;21.15;;;12.52;;
25511;SDS011;13414;44.534;18.700;2022-09-09T08:17:24;21.90;;;11.63;;
25511;SDS011;13414;44.534;18.700;2022-09-09T08:19:52;18.00;;;11.82;;
25511;SDS011;13414;44.534;18.700;2022-09-09T08:22:23;17.73;;;9.88;;
25511;SDS011;13414;44.534;18.700;2022-09-09T08:24:51;14.45;;;9.85;;
25511;SDS011;13414;44.534;18.700;2022-09-09T08:27:19;15.88;;;9.25;;
25511;SDS011;13414;44.534;18.700;2022-09-09T08:29:46;14.23;;;10.40;;
25511;SDS011;13414;44.534;18.700;2022-09-09T08:32:15;16.83;;;10.75;;
25511;SDS011;13414;44.534;18.700;2022-09-09T08:34:45;19.20;;;10.98;;
25511;SDS011;13414;44.534;18.700;2022-09-09T08:37:18;16.95;;;10.27;;
25511;SDS011;13414;44.534;18.700;2022-09-09T08:39:47;15.75;;;10.00;;
25511;SDS011;13414;44.534;18.700;2022-09-09T08:42:21;13.60;;;8.90;;
25511;SDS011;13414;44.534;18.700;2022-09-09T08:45:02;12.75;;;9.43;;
25511;SDS011;13414;44.534;18.700;2022-09-09T08:47:51;32.17;;;18.52;;
25511;SDS011;13414;44.534;18.700;2022-09-09T08:50:30;14.52;;;9.38;;
25511;SDS011;13414;44.534;18.700;2022-09-09T08:53:19;68.53;;;48.97;;
25511;SDS011;13414;44.534;18.700;2022-09-09T08:55:53;43.00;;;30.92;;
25511;SDS011;13414;44.534;18.700;2022-09-09T08:58:40;14.90;;;9.40;;
25511;SDS011;13414;44.534;18.700;2022-09-09T09:01:21;14.77;;;10.60;;
25511;SDS011;13414;44.534;18.700;2022-09-09T09:04:11;15.40;;;10.02;;
25511;SDS011;13414;44.534;18.700;2022-09-09T09:06:50;12.15;;;8.27;;
25511;SDS011;13414;44.534;18.700;2022-09-09T09:09:31;11.10;;;8.48;;
25511;SDS011;13414;44.534;18.700;2022-09-09T09:12:11;16.92;;;10.93;;
25511;SDS011;13414;44.534;18.700;2022-09-09T09:14:43;17.80;;;9.90;;
25511;SDS011;13414;44.534;18.700;2022-09-09T09:17:15;17.15;;;8.93;;
25511;SDS011;13414;44.534;18.700;2022-09-09T09:19:47;14.07;;;8.27;;
25511;SDS011;13414;44.534;18.700;2022-09-09T09:22:17;15.10;;;8.43;;
25511;SDS011;13414;44.534;18.700;2022-09-09T09:24:51;20.45;;;10.30;;
25511;SDS011;13414;44.534;18.700;2022-09-09T09:27:26;101.97;;;21.92;;
25511;SDS011;13414;44.534;18.700;2022-09-09T09:29:59;17.73;;;10.05;;
25511;SDS011;13414;44.534;18.700;2022-09-09T09:32:31;14.63;;;8.38;;
25511;SDS011;13414;44.534;18.700;2022-09-09T09:35:09;13.80;;;8.23;;
25511;SDS011;13414;44.534;18.700;2022-09-09T09:37:41;11.77;;;7.30;;
25511;SDS011;13414;44.534;18.700;2022-09-09T09:40:11;10.70;;;7.50;;
25511;SDS011;13414;44.534;18.700;2022-09-09T09:42:47;12.80;;;7.72;;
25511;SDS011;13414;44.534;18.700;2022-09-09T09:45:17;14.50;;;8.18;;
25511;SDS011;13414;44.534;18.700;2022-09-09T09:47:58;14.82;;;7.72;;
25511;SDS011;13414;44.534;18.700;2022-09-09T09:50:30;14.68;;;7.75;;
25511;SDS011;13414;44.534;18.700;2022-09-09T09:52:59;13.18;;;6.90;;
25511;SDS011;13414;44.534;18.700;2022-09-09T09:55:32;10.48;;;6.53;;
25511;SDS011;13414;44.534;18.700;2022-09-09T09:58:03;11.20;;;7.30;;
25511;SDS011;13414;44.534;18.700;2022-09-09T10:00:31;10.27;;;6.70;;
25511;SDS011;13414;44.534;18.700;2022-09-09T10:03:13;11.55;;;8.45;;
25511;SDS011;13414;44.534;18.700;2022-09-09T10:05:50;12.32;;;7.55;;
25511;SDS011;13414;44.534;18.700;2022-09-09T10:08:19;30.85;;;9.18;;
25511;SDS011;13414;44.534;18.700;2022-09-09T10:10:52;18.08;;;10.77;;
25511;SDS011;13414;44.534;18.700;2022-09-09T10:13:38;12.45;;;8.52;;
25511;SDS011;13414;44.534;18.700;2022-09-09T10:16:21;14.50;;;6.45;;
25511;SDS011;13414;44.534;18.700;2022-09-09T10:19:00;13.23;;;8.95;;
25511;SDS011;13414;44.534;18.700;2022-09-09T10:21:39;13.85;;;6.05;;
25511;SDS011;13414;44.534;18.700;2022-09-09T10:24:20;40.90;;;32.97;;
25511;SDS011;13414;44.534;18.700;2022-09-09T10:26:58;11.80;;;8.18;;
25511;SDS011;13414;44.534;18.700;2022-09-09T10:29:35;9.82;;;6.05;;
25511;SDS011;13414;44.534;18.700;2022-09-09T10:32:15;12.13;;;5.50;;
25511;SDS011;13414;44.534;18.700;2022-09-09T10:34:56;13.32;;;6.07;;
25511;SDS011;13414;44.534;18.700;2022-09-09T10:37:34;10.32;;;5.97;;
25511;SDS011;13414;44.534;18.700;2022-09-09T10:40:15;11.15;;;7.47;;
25511;SDS011;13414;44.534;18.700;2022-09-09T10:42:52;10.00;;;6.80;;
25511;SDS011;13414;44.534;18.700;2022-09-09T10:45:27;16.20;;;7.25;;
25511;SDS011;13414;44.534;18.700;2022-09-09T10:48:03;13.68;;;8.10;;
25511;SDS011;13414;44.534;18.700;2022-09-09T10:50:43;12.38;;;5.97;;
25511;SDS011;13414;44.534;18.700;2022-09-09T10:53:20;11.60;;;5.97;;
25511;SDS011;13414;44.534;18.700;2022-09-09T10:55:53;9.68;;;5.30;;
25511;SDS011;13414;44.534;18.700;2022-09-09T10:58:27;8.75;;;4.68;;
25511;SDS011;13414;44.534;18.700;2022-09-09T11:00:59;7.78;;;4.60;;
25511;SDS011;13414;44.534;18.700;2022-09-09T11:03:33;5.32;;;3.90;;
25511;SDS011;13414;44.534;18.700;2022-09-09T11:06:05;11.40;;;6.20;;
25511;SDS011;13414;44.534;18.700;2022-09-09T11:08:38;9.55;;;6.70;;
25511;SDS011;13414;44.534;18.700;2022-09-09T11:11:09;11.70;;;7.82;;
25511;SDS011;13414;44.534;18.700;2022-09-09T11:13:42;17.10;;;11.02;;
25511;SDS011;13414;44.534;18.700;2022-09-09T11:16:20;13.73;;;11.03;;
25511;SDS011;13414;44.534;18.700;2022-09-09T11:18:54;10.02;;;4.85;;
25511;SDS011;13414;44.534;18.700;2022-09-09T11:21:26;9.52;;;4.65;;
25511;SDS011;13414;44.534;18.700;2022-09-09T11:23:59;12.55;;;7.88;;
25511;SDS011;13414;44.534;18.700;2022-09-09T11:26:31;11.20;;;5.95;;
25511;SDS011;13414;44.534;18.700;2022-09-09T11:29:09;14.02;;;7.57;;
25511;SDS011;13414;44.534;18.700;2022-09-09T11:31:54;7.85;;;5.35;;
25511;SDS011;13414;44.534;18.700;2022-09-09T11:34:35;9.45;;;5.18;;
25511;SDS011;13414;44.534;18.700;2022-09-09T11:40:20;7.88;;;4.60;;
25511;SDS011;13414;44.534;18.700;2022-09-09T11:43:00;7.78;;;4.45;;
25511;SDS011;13414;44.534;18.700;2022-09-09T11:45:29;9.55;;;4.38;;
25511;SDS011;13414;44.534;18.700;2022-09-09T11:47:58;7.93;;;4.72;;
25511;SDS011;13414;44.534;18.700;2022-09-09T11:50:31;7.07;;;4.78;;
25511;SDS011;13414;44.534;18.700;2022-09-09T11:55:59;8.68;;;4.22;;
25511;SDS011;13414;44.534;18.700;2022-09-09T11:58:29;7.00;;;3.88;;
25511;SDS011;13414;44.534;18.700;2022-09-09T12:01:12;7.70;;;4.50;;
25511;SDS011;13414;44.534;18.700;2022-09-09T12:03:41;9.43;;;4.63;;
25511;SDS011;13414;44.534;18.700;2022-09-09T12:06:13;9.48;;;5.03;;
25511;SDS011;13414;44.534;18.700;2022-09-09T12:08:44;9.00;;;4.20;;
25511;SDS011;13414;44.534;18.700;2022-09-09T12:11:24;8.68;;;4.30;;
25511;SDS011;13414;44.534;18.700;2022-09-09T12:13:53;8.02;;;3.63;;
25511;SDS011;13414;44.534;18.700;2022-09-09T12:16:28;6.43;;;4.32;;
25511;SDS011;13414;44.534;18.700;2022-09-09T12:19:05;7.75;;;4.25;;
25511;SDS011;13414;44.534;18.700;2022-09-09T12:21:42;9.48;;;4.78;;
25511;SDS011;13414;44.534;18.700;2022-09-09T12:24:16;11.63;;;6.07;;
25511;SDS011;13414;44.534;18.700;2022-09-09T12:26:53;7.43;;;4.28;;
25511;SDS011;13414;44.534;18.700;2022-09-09T12:31:59;8.43;;;4.25;;
25511;SDS011;13414;44.534;18.700;2022-09-09T12:34:33;5.80;;;4.10;;
25511;SDS011;13414;44.534;18.700;2022-09-09T12:37:06;11.70;;;6.30;;
25511;SDS011;13414;44.534;18.700;2022-09-09T12:39:44;6.90;;;4.50;;
25511;SDS011;13414;44.534;18.700;2022-09-09T12:42:18;10.60;;;5.93;;
25511;SDS011;13414;44.534;18.700;2022-09-09T12:44:50;12.27;;;7.47;;
25511;SDS011;13414;44.534;18.700;2022-09-09T12:47:22;5.40;;;4.20;;
25511;SDS011;13414;44.534;18.700;2022-09-09T12:49:55;7.53;;;3.90;;
25511;SDS011;13414;44.534;18.700;2022-09-09T12:52:24;10.02;;;7.50;;
25511;SDS011;13414;44.534;18.700;2022-09-09T12:54:57;7.50;;;5.50;;
25511;SDS011;13414;44.534;18.700;2022-09-09T12:57:29;6.40;;;4.88;;
25511;SDS011;13414;44.534;18.700;2022-09-09T13:00:06;10.48;;;4.13;;
25511;SDS011;13414;44.534;18.700;2022-09-09T13:02:45;6.00;;;3.95;;
25511;SDS011;13414;44.534;18.700;2022-09-09T13:05:16;9.20;;;5.32;;
25511;SDS011;13414;44.534;18.700;2022-09-09T13:07:46;10.30;;;5.30;;
25511;SDS011;13414;44.534;18.700;2022-09-09T13:10:14;7.90;;;4.93;;
25511;SDS011;13414;44.534;18.700;2022-09-09T13:12:48;7.30;;;5.22;;
25511;SDS011;13414;44.534;18.700;2022-09-09T13:15:19;6.63;;;4.60;;
25511;SDS011;13414;44.534;18.700;2022-09-09T13:17:49;5.85;;;3.80;;
25511;SDS011;13414;44.534;18.700;2022-09-09T13:20:22;8.27;;;3.90;;
25511;SDS011;13414;44.534;18.700;2022-09-09T13:22:51;11.75;;;5.57;;
25511;SDS011;13414;44.534;18.700;2022-09-09T13:25:21;10.15;;;5.38;;
25511;SDS011;13414;44.534;18.700;2022-09-09T13:27:54;5.15;;;3.97;;
25511;SDS011;13414;44.534;18.700;2022-09-09T13:30:24;7.32;;;3.97;;
25511;SDS011;13414;44.534;18.700;2022-09-09T13:33:00;7.65;;;4.40;;
25511;SDS011;13414;44.534;18.700;2022-09-09T13:35:48;8.48;;;5.05;;
25511;SDS011;13414;44.534;18.700;2022-09-09T13:38:18;7.72;;;4.05;;
25511;SDS011;13414;44.534;18.700;2022-09-09T13:40:53;7.53;;;4.95;;
25511;SDS011;13414;44.534;18.700;2022-09-09T13:43:24;6.25;;;3.60;;
25511;SDS011;13414;44.534;18.700;2022-09-09T13:45:53;7.05;;;4.07;;
25511;SDS011;13414;44.534;18.700;2022-09-09T13:48:23;5.65;;;3.90;;
25511;SDS011;13414;44.534;18.700;2022-09-09T13:50:59;6.57;;;5.05;;
25511;SDS011;13414;44.534;18.700;2022-09-09T13:53:28;9.23;;;4.38;;
25511;SDS011;13414;44.534;18.700;2022-09-09T13:55:55;12.77;;;6.97;;
25511;SDS011;13414;44.534;18.700;2022-09-09T13:58:25;10.95;;;3.40;;
25511;SDS011;13414;44.534;18.700;2022-09-09T14:00:53;5.88;;;3.60;;
25511;SDS011;13414;44.534;18.700;2022-09-09T14:03:20;8.55;;;3.90;;
25511;SDS011;13414;44.534;18.700;2022-09-09T14:05:48;9.00;;;3.40;;
25511;SDS011;13414;44.534;18.700;2022-09-09T14:08:20;6.40;;;2.88;;
25511;SDS011;13414;44.534;18.700;2022-09-09T14:10:50;5.53;;;2.97;;
25511;SDS011;13414;44.534;18.700;2022-09-09T14:13:17;6.90;;;3.55;;
25511;SDS011;13414;44.534;18.700;2022-09-09T14:15:49;9.10;;;5.88;;
25511;SDS011;13414;44.534;18.700;2022-09-09T14:18:16;5.90;;;3.58;;
25511;SDS011;13414;44.534;18.700;2022-09-09T14:20:44;8.65;;;5.07;;
25511;SDS011;13414;44.534;18.700;2022-09-09T14:23:11;6.05;;;4.60;;
25511;SDS011;13414;44.534;18.700;2022-09-09T14:25:40;8.52;;;3.95;;
25511;SDS011;13414;44.534;18.700;2022-09-09T14:28:12;7.95;;;4.13;;
25511;SDS011;13414;44.534;18.700;2022-09-09T14:30:40;6.90;;;3.92;;
25511;SDS011;13414;44.534;18.700;2022-09-09T14:33:11;6.57;;;3.67;;
25511;SDS011;13414;44.534;18.700;2022-09-09T14:35:40;9.65;;;4.80;;
25511;SDS011;13414;44.534;18.700;2022-09-09T14:38:08;7.88;;;4.50;;
25511;SDS011;13414;44.534;18.700;2022-09-09T14:40:36;11.23;;;4.32;;
25511;SDS011;13414;44.534;18.700;2022-09-09T14:43:04;5.68;;;4.13;;
25511;SDS011;13414;44.534;18.700;2022-09-09T14:45:31;6.57;;;3.65;;
25511;SDS011;13414;44.534;18.700;2022-09-09T14:47:59;7.85;;;3.90;;
25511;SDS011;13414;44.534;18.700;2022-09-09T14:50:28;11.95;;;6.32;;
25511;SDS011;13414;44.534;18.700;2022-09-09T14:52:55;8.63;;;4.70;;
25511;SDS011;13414;44.534;18.700;2022-09-09T14:55:23;8.52;;;4.68;;
25511;SDS011;13414;44.534;18.700;2022-09-09T14:57:53;7.85;;;4.35;;
25511;SDS011;13414;44.534;18.700;2022-09-09T15:00:21;10.43;;;4.43;;
25511;SDS011;13414;44.534;18.700;2022-09-09T15:02:51;10.40;;;4.82;;